sensor_id;sensor_type;location;lat;lon;timestamp;pressure;altitude;pressure_sealevel;temperature;humidity
57574;BME280;63722;48.858;21.906;2023-01-15T00:01:33;98805.06;;;20.01;43.45
57574;BME280;63722;48.858;21.906;2023-01-15T00:04:00;98807.94;;;20.00;43.38
57574;BME280;63722;48.858;21.906;2023-01-15T00:06:45;98799.97;;;20.00;43.46
57574;BME280;63722;48.858;21.906;2023-01-15T00:09:14;98790.38;;;19.99;43.51
57574;BME280;63722;48.858;21.906;2023-01-15T00:11:41;98786.66;;;20.00;43.33
57574;BME280;63722;48.858;21.906;2023-01-15T00:14:06;98774.41;;;19.99;43.36
57574;BME280;63722;48.858;21.906;2023-01-15T00:16:32;98776.25;;;19.98;43.40
57574;BME280;63722;48.858;21.906;2023-01-15T00:18:59;98777.88;;;19.99;43.22
57574;BME280;63722;48.858;21.906;2023-01-15T00:21:27;98769.88;;;19.99;43.42
57574;BME280;63722;48.858;21.906;2023-01-15T00:23:53;98761.34;;;19.97;43.50
57574;BME280;63722;48.858;21.906;2023-01-15T00:26:38;98746.16;;;19.98;43.33
57574;BME280;63722;48.858;21.906;2023-01-15T00:29:24;98741.09;;;19.96;43.44
57574;BME280;63722;48.858;21.906;2023-01-15T00:32:01;98746.72;;;20.00;43.45
57574;BME280;63722;48.858;21.906;2023-01-15T00:34:27;98734.97;;;19.96;43.23
57574;BME280;63722;48.858;21.906;2023-01-15T00:36:54;98737.16;;;19.99;43.34
57574;BME280;63722;48.858;21.906;2023-01-15T00:39:19;98729.41;;;19.97;43.43
57574;BME280;63722;48.858;21.906;2023-01-15T00:41:45;98737.16;;;19.99;43.33
57574;BME280;63722;48.858;21.906;2023-01-15T00:44:11;98736.00;;;19.95;43.61
57574;BME280;63722;48.858;21.906;2023-01-15T00:46:36;98729.88;;;19.94;43.42
57574;BME280;63722;48.858;21.906;2023-01-15T00:49:03;98719.69;;;19.91;43.47
57574;BME280;63722;48.858;21.906;2023-01-15T00:51:28;98722.78;;;20.00;43.46
57574;BME280;63722;48.858;21.906;2023-01-15T00:53:54;98714.69;;;19.95;43.54
57574;BME280;63722;48.858;21.906;2023-01-15T00:56:19;98719.56;;;19.98;43.38
57574;BME280;63722;48.858;21.906;2023-01-15T00:58:45;98713.66;;;19.96;43.31
57574;BME280;63722;48.858;21.906;2023-01-15T01:01:12;98716.09;;;19.97;43.17
57574;BME280;63722;48.858;21.906;2023-01-15T01:03:37;98708.91;;;19.98;43.24
57574;BME280;63722;48.858;21.906;2023-01-15T01:06:03;98704.63;;;19.97;43.36
57574;BME280;63722;48.858;21.906;2023-01-15T01:08:29;98707.28;;;19.97;43.28
57574;BME280;63722;48.858;21.906;2023-01-15T01:11:06;98709.69;;;19.98;43.33
57574;BME280;63722;48.858;21.906;2023-01-15T01:13:33;98710.41;;;19.94;43.35
57574;BME280;63722;48.858;21.906;2023-01-15T01:15:58;98717.13;;;19.96;43.23
57574;BME280;63722;48.858;21.906;2023-01-15T01:18:24;98704.06;;;19.95;43.28
57574;BME280;63722;48.858;21.906;2023-01-15T01:20:50;98714.22;;;19.98;43.48
57574;BME280;63722;48.858;21.906;2023-01-15T01:23:15;98715.50;;;19.95;43.39
57574;BME280;63722;48.858;21.906;2023-01-15T01:25:41;98723.00;;;19.98;43.36
57574;BME280;63722;48.858;21.906;2023-01-15T01:28:06;98725.66;;;19.98;43.33
57574;BME280;63722;48.858;21.906;2023-01-15T01:30:31;98721.97;;;19.99;43.29
57574;BME280;63722;48.858;21.906;2023-01-15T01:32:57;98730.19;;;19.98;43.41
57574;BME280;63722;48.858;21.906;2023-01-15T01:35:22;98721.19;;;19.99;43.29
57574;BME280;63722;48.858;21.906;2023-01-15T01:37:51;98713.44;;;19.97;43.31
57574;BME280;63722;48.858;21.906;2023-01-15T01:40:18;98707.28;;;19.97;43.14
57574;BME280;63722;48.858;21.906;2023-01-15T01:42:43;98703.25;;;19.94;43.43
57574;BME280;63722;48.858;21.906;2023-01-15T01:45:27;98704.63;;;19.97;43.43
57574;BME280;63722;48.858;21.906;2023-01-15T01:47:56;98716.31;;;19.96;43.30
57574;BME280;63722;48.858;21.906;2023-01-15T01:50:24;98695.03;;;19.96;43.38
57574;BME280;63722;48.858;21.906;2023-01-15T01:52:56;98693.97;;;19.97;43.69
57574;BME280;63722;48.858;21.906;2023-01-15T01:55:25;98695.84;;;19.96;43.43
57574;BME280;63722;48.858;21.906;2023-01-15T01:57:53;98685.97;;;19.97;43.36
57574;BME280;63722;48.858;21.906;2023-01-15T02:00:21;98681.72;;;19.96;43.18
57574;BME280;63722;48.858;21.906;2023-01-15T02:02:48;98686.81;;;19.97;43.14
57574;BME280;63722;48.858;21.906;2023-01-15T02:05:39;98688.66;;;19.97;43.28
57574;BME280;63722;48.858;21.906;2023-01-15T02:08:06;98683.31;;;19.97;43.22
57574;BME280;63722;48.858;21.906;2023-01-15T02:10:32;98676.66;;;19.94;43.52
57574;BME280;63722;48.858;21.906;2023-01-15T02:13:14;98672.91;;;19.95;43.18
57574;BME280;63722;48.858;21.906;2023-01-15T02:15:46;98672.91;;;19.95;43.17
57574;BME280;63722;48.858;21.906;2023-01-15T02:18:24;98671.31;;;19.94;43.36
57574;BME280;63722;48.858;21.906;2023-01-15T02:21:00;98688.66;;;19.97;43.22
57574;BME280;63722;48.858;21.906;2023-01-15T02:23:49;98670.25;;;19.95;43.22
57574;BME280;63722;48.858;21.906;2023-01-15T02:29:13;98668.41;;;19.96;43.23
57574;BME280;63722;48.858;21.906;2023-01-15T02:31:43;98673.75;;;19.96;43.23
57574;BME280;63722;48.858;21.906;2023-01-15T02:36:42;98667.59;;;19.95;43.19
57574;BME280;63722;48.858;21.906;2023-01-15T02:39:10;98663.91;;;19.96;43.10
57574;BME280;63722;48.858;21.906;2023-01-15T02:41:44;98657.66;;;19.91;43.20
57574;BME280;63722;48.858;21.906;2023-01-15T02:44:13;98652.94;;;19.93;43.26
57574;BME280;63722;48.858;21.906;2023-01-15T02:46:40;98654.28;;;19.95;43.39
57574;BME280;63722;48.858;21.906;2023-01-15T02:49:08;98656.16;;;19.95;43.15
57574;BME280;63722;48.858;21.906;2023-01-15T02:51:40;98654.88;;;19.97;43.17
57574;BME280;63722;48.858;21.906;2023-01-15T02:54:12;98640.75;;;19.97;43.30
57574;BME280;63722;48.858;21.906;2023-01-15T02:56:40;98636.47;;;19.96;43.22
57574;BME280;63722;48.858;21.906;2023-01-15T02:59:12;98640.19;;;19.95;43.21
57574;BME280;63722;48.858;21.906;2023-01-15T03:01:45;98616.94;;;19.90;43.03
57574;BME280;63722;48.858;21.906;2023-01-15T03:04:17;98620.50;;;19.96;43.27
57574;BME280;63722;48.858;21.906;2023-01-15T03:09:16;98627.44;;;19.97;43.17
57574;BME280;63722;48.858;21.906;2023-01-15T03:11:50;98618.88;;;19.95;42.88
57574;BME280;63722;48.858;21.906;2023-01-15T03:14:28;98612.53;;;19.96;43.07
57574;BME280;63722;48.858;21.906;2023-01-15T03:17:01;98603.97;;;19.94;43.00
57574;BME280;63722;48.858;21.906;2023-01-15T03:19:40;98601.66;;;19.97;43.13
57574;BME280;63722;48.858;21.906;2023-01-15T03:22:17;98608.25;;;19.95;43.16
57574;BME280;63722;48.858;21.906;2023-01-15T03:24:47;98599.22;;;19.96;43.24
57574;BME280;63722;48.858;21.906;2023-01-15T03:27:14;98594.13;;;19.94;43.15
57574;BME280;63722;48.858;21.906;2023-01-15T03:29:52;98589.06;;;19.93;43.19
57574;BME280;63722;48.858;21.906;2023-01-15T03:32:20;98595.91;;;19.89;43.18
57574;BME280;63722;48.858;21.906;2023-01-15T03:34:51;98606.63;;;19.94;43.18
57574;BME280;63722;48.858;21.906;2023-01-15T03:37:18;98602.91;;;19.95;43.17
57574;BME280;63722;48.858;21.906;2023-01-15T03:39:45;98608.47;;;19.93;43.10
57574;BME280;63722;48.858;21.906;2023-01-15T03:42:19;98608.25;;;19.95;43.05
57574;BME280;63722;48.858;21.906;2023-01-15T03:47:51;98600.81;;;19.97;43.20
57574;BME280;63722;48.858;21.906;2023-01-15T03:50:41;98596.81;;;19.94;43.06
57574;BME280;63722;48.858;21.906;2023-01-15T03:53:48;98601.66;;;19.97;43.20
57574;BME280;63722;48.858;21.906;2023-01-15T03:56:23;98595.97;;;19.94;43.03
57574;BME280;63722;48.858;21.906;2023-01-15T03:59:01;98602.91;;;19.95;43.17
57574;BME280;63722;48.858;21.906;2023-01-15T04:01:35;98602.69;;;19.96;43.24
57574;BME280;63722;48.858;21.906;2023-01-15T04:04:02;98598.63;;;19.94;42.97
57574;BME280;63722;48.858;21.906;2023-01-15T04:06:29;98595.97;;;19.94;43.24
57574;BME280;63722;48.858;21.906;2023-01-15T04:08:56;98588.47;;;19.91;43.13
57574;BME280;63722;48.858;21.906;2023-01-15T04:11:24;98585.91;;;19.96;43.05
57574;BME280;63722;48.858;21.906;2023-01-15T04:13:50;98581.06;;;19.93;43.25
57574;BME280;63722;48.858;21.906;2023-01-15T04:16:23;98586.47;;;19.98;43.00
57574;BME280;63722;48.858;21.906;2023-01-15T04:18:49;98589.38;;;19.96;43.13
57574;BME280;63722;48.858;21.906;2023-01-15T04:21:14;98589.63;;;19.95;43.14
57574;BME280;63722;48.858;21.906;2023-01-15T04:23:39;98592.50;;;19.93;43.06
57574;BME280;63722;48.858;21.906;2023-01-15T04:26:05;98589.84;;;19.93;43.16
57574;BME280;63722;48.858;21.906;2023-01-15T04:28:32;98594.38;;;19.93;43.28
57574;BME280;63722;48.858;21.906;2023-01-15T04:30:58;98596.22;;;19.92;43.29
57574;BME280;63722;48.858;21.906;2023-01-15T04:33:24;98595.97;;;19.94;43.15
57574;BME280;63722;48.858;21.906;2023-01-15T04:35:49;98593.31;;;19.94;43.13
57574;BME280;63722;48.858;21.906;2023-01-15T04:38:15;98581.63;;;19.95;43.00
57574;BME280;63722;48.858;21.906;2023-01-15T04:40:42;98571.47;;;19.92;43.09
57574;BME280;63722;48.858;21.906;2023-01-15T04:43:26;98577.59;;;19.92;43.20
57574;BME280;63722;48.858;21.906;2023-01-15T04:46:10;98570.44;;;19.93;43.13
57574;BME280;63722;48.858;21.906;2023-01-15T04:48:37;98567.53;;;19.94;42.95
57574;BME280;63722;48.858;21.906;2023-01-15T04:51:04;98570.44;;;19.93;43.04
57574;BME280;63722;48.858;21.906;2023-01-15T04:53:30;98580.84;;;19.94;42.98
57574;BME280;63722;48.858;21.906;2023-01-15T04:56:02;98576.31;;;19.95;43.07
57574;BME280;63722;48.858;21.906;2023-01-15T04:58:28;98580.84;;;19.94;43.05
57574;BME280;63722;48.858;21.906;2023-01-15T05:00:54;98581.31;;;19.91;42.74
57574;BME280;63722;48.858;21.906;2023-01-15T05:03:19;98582.13;;;19.92;42.92
57574;BME280;63722;48.858;21.906;2023-01-15T05:05:44;98579.22;;;19.93;43.12
57574;BME280;63722;48.858;21.906;2023-01-15T05:08:10;98580.50;;;19.91;43.04
57574;BME280;63722;48.858;21.906;2023-01-15T05:10:35;98577.34;;;19.94;43.03
57574;BME280;63722;48.858;21.906;2023-01-15T05:13:00;98569.84;;;19.91;43.19
57574;BME280;63722;48.858;21.906;2023-01-15T05:15:26;98566.63;;;19.89;42.93
57574;BME280;63722;48.858;21.906;2023-01-15T05:17:51;98565.91;;;19.93;42.98
57574;BME280;63722;48.858;21.906;2023-01-15T05:20:17;98567.78;;;19.93;43.16
57574;BME280;63722;48.858;21.906;2023-01-15T05:22:42;98573.09;;;19.93;43.05
57574;BME280;63722;48.858;21.906;2023-01-15T05:25:08;98569.38;;;19.94;43.05
57574;BME280;63722;48.858;21.906;2023-01-15T05:27:33;98575.28;;;19.96;42.86
57574;BME280;63722;48.858;21.906;2023-01-15T05:29:58;98569.03;;;19.90;43.05
57574;BME280;63722;48.858;21.906;2023-01-15T05:32:24;98569.84;;;19.91;43.12
57574;BME280;63722;48.858;21.906;2023-01-15T05:34:49;98562.44;;;19.93;42.99
57574;BME280;63722;48.858;21.906;2023-01-15T05:37:14;98569.38;;;19.94;42.92
57574;BME280;63722;48.858;21.906;2023-01-15T05:39:40;98569.38;;;19.94;43.10
57574;BME280;63722;48.858;21.906;2023-01-15T05:42:05;98565.91;;;19.93;42.98
57574;BME280;63722;48.858;21.906;2023-01-15T05:44:32;98555.50;;;19.92;42.98
57574;BME280;63722;48.858;21.906;2023-01-15T05:47:00;98559.53;;;19.94;43.04
57574;BME280;63722;48.858;21.906;2023-01-15T05:49:27;98557.38;;;19.91;43.06
57574;BME280;63722;48.858;21.906;2023-01-15T05:51:55;98556.28;;;19.92;43.12
57574;BME280;63722;48.858;21.906;2023-01-15T05:54:23;98544.06;;;19.91;42.99
57574;BME280;63722;48.858;21.906;2023-01-15T05:56:49;98540.56;;;19.91;42.84
57574;BME280;63722;48.858;21.906;2023-01-15T05:59:16;98542.19;;;19.92;42.85
57574;BME280;63722;48.858;21.906;2023-01-15T06:01:42;98538.50;;;19.93;42.90
57574;BME280;63722;48.858;21.906;2023-01-15T06:04:09;98544.31;;;19.90;42.99
57574;BME280;63722;48.858;21.906;2023-01-15T06:06:35;98537.13;;;19.90;43.00
57574;BME280;63722;48.858;21.906;2023-01-15T06:09:02;98534.69;;;19.89;42.85
57574;BME280;63722;48.858;21.906;2023-01-15T06:11:28;98537.84;;;19.85;42.99
57574;BME280;63722;48.858;21.906;2023-01-15T06:13:53;98532.59;;;19.91;42.89
57574;BME280;63722;48.858;21.906;2023-01-15T06:16:19;98533.66;;;19.90;43.04
57574;BME280;63722;48.858;21.906;2023-01-15T06:18:44;98524.59;;;19.91;43.06
57574;BME280;63722;48.858;21.906;2023-01-15T06:21:11;98526.72;;;19.89;43.01
57574;BME280;63722;48.858;21.906;2023-01-15T06:23:38;98527.03;;;19.92;42.72
57574;BME280;63722;48.858;21.906;2023-01-15T06:26:07;98528.88;;;19.92;42.98
57574;BME280;63722;48.858;21.906;2023-01-15T06:28:33;98531.31;;;19.93;42.84
57574;BME280;63722;48.858;21.906;2023-01-15T06:30:58;98525.44;;;19.91;43.00
57574;BME280;63722;48.858;21.906;2023-01-15T06:33:24;98530.75;;;19.91;42.84
57574;BME280;63722;48.858;21.906;2023-01-15T06:35:49;98528.88;;;19.92;43.03
57574;BME280;63722;48.858;21.906;2023-01-15T06:38:15;98541.63;;;19.90;43.07
57574;BME280;63722;48.858;21.906;2023-01-15T06:40:40;98547.19;;;19.88;43.08
57574;BME280;63722;48.858;21.906;2023-01-15T06:43:08;98549.38;;;19.91;42.89
57574;BME280;63722;48.858;21.906;2023-01-15T06:45:52;98552.28;;;19.90;43.41
57574;BME280;63722;48.858;21.906;2023-01-15T06:48:50;98546.13;;;19.89;42.95
57574;BME280;63722;48.858;21.906;2023-01-15T06:51:15;98543.81;;;19.93;42.85
57574;BME280;63722;48.858;21.906;2023-01-15T06:53:45;98539.53;;;19.92;42.83
57574;BME280;63722;48.858;21.906;2023-01-15T06:56:12;98531.56;;;19.92;43.05
57574;BME280;63722;48.858;21.906;2023-01-15T06:58:41;98536.63;;;19.93;43.06
57574;BME280;63722;48.858;21.906;2023-01-15T07:01:10;98531.56;;;19.92;42.85
57574;BME280;63722;48.858;21.906;2023-01-15T07:03:36;98535.84;;;19.93;42.96
57574;BME280;63722;48.858;21.906;2023-01-15T07:06:09;98535.84;;;19.93;42.99
57574;BME280;63722;48.858;21.906;2023-01-15T07:08:35;98524.84;;;19.89;42.85
57574;BME280;63722;48.858;21.906;2023-01-15T07:11:06;98527.25;;;19.91;43.05
57574;BME280;63722;48.858;21.906;2023-01-15T07:13:32;98525.19;;;19.93;42.95
57574;BME280;63722;48.858;21.906;2023-01-15T07:15:59;98523.00;;;19.90;42.91
57574;BME280;63722;48.858;21.906;2023-01-15T07:18:25;98526.22;;;19.92;42.84
57574;BME280;63722;48.858;21.906;2023-01-15T07:20:54;98526.78;;;19.94;42.63
57574;BME280;63722;48.858;21.906;2023-01-15T07:23:20;98526.78;;;19.94;42.72
57574;BME280;63722;48.858;21.906;2023-01-15T07:25:45;98528.88;;;19.92;42.93
57574;BME280;63722;48.858;21.906;2023-01-15T07:28:11;98537.44;;;19.94;42.85
57574;BME280;63722;48.858;21.906;2023-01-15T07:30:37;98526.72;;;19.89;42.80
57574;BME280;63722;48.858;21.906;2023-01-15T07:33:02;98530.50;;;19.93;42.79
57574;BME280;63722;48.858;21.906;2023-01-15T07:35:27;98532.09;;;19.94;42.61
57574;BME280;63722;48.858;21.906;2023-01-15T07:37:55;98541.16;;;19.93;42.77
57574;BME280;63722;48.858;21.906;2023-01-15T07:40:20;98539.78;;;19.90;42.87
57574;BME280;63722;48.858;21.906;2023-01-15T07:42:46;98542.44;;;19.90;42.89
57574;BME280;63722;48.858;21.906;2023-01-15T07:45:29;98534.22;;;19.92;42.92
57574;BME280;63722;48.858;21.906;2023-01-15T07:48:13;98536.06;;;19.91;42.93
57574;BME280;63722;48.858;21.906;2023-01-15T07:50:57;98530.75;;;19.91;42.82
57574;BME280;63722;48.858;21.906;2023-01-15T07:53:23;98542.69;;;19.89;43.07
57574;BME280;63722;48.858;21.906;2023-01-15T07:55:48;98537.91;;;19.91;42.66
57574;BME280;63722;48.858;21.906;2023-01-15T07:58:14;98530.50;;;19.93;42.89
57574;BME280;63722;48.858;21.906;2023-01-15T08:00:39;98533.97;;;19.93;42.69
57574;BME280;63722;48.858;21.906;2023-01-15T08:03:04;98527.03;;;19.92;42.89
57574;BME280;63722;48.858;21.906;2023-01-15T08:05:30;98528.41;;;19.95;42.78
57574;BME280;63722;48.858;21.906;2023-01-15T08:07:56;98530.50;;;19.93;42.91
57574;BME280;63722;48.858;21.906;2023-01-15T08:10:21;98528.34;;;19.90;42.81
57574;BME280;63722;48.858;21.906;2023-01-15T08:12:50;98523.25;;;19.88;42.92
57574;BME280;63722;48.858;21.906;2023-01-15T08:15:38;98525.44;;;19.91;42.86
57574;BME280;63722;48.858;21.906;2023-01-15T08:18:03;98521.38;;;19.89;42.85
57574;BME280;63722;48.858;21.906;2023-01-15T08:20:30;98518.78;;;19.94;42.71
57574;BME280;63722;48.858;21.906;2023-01-15T08:22:55;98511.31;;;19.91;42.79
57574;BME280;63722;48.858;21.906;2023-01-15T08:25:24;98520.66;;;19.93;42.71
57574;BME280;63722;48.858;21.906;2023-01-15T08:27:50;98522.78;;;19.91;42.91
57574;BME280;63722;48.858;21.906;2023-01-15T08:30:22;98511.88;;;19.93;42.76
57574;BME280;63722;48.858;21.906;2023-01-15T08:32:47;98515.59;;;19.92;42.82
57574;BME280;63722;48.858;21.906;2023-01-15T08:35:13;98524.69;;;19.96;42.57
57574;BME280;63722;48.858;21.906;2023-01-15T08:37:39;98517.44;;;19.91;42.66
57574;BME280;63722;48.858;21.906;2023-01-15T08:40:06;98517.22;;;19.93;42.72
57574;BME280;63722;48.858;21.906;2023-01-15T08:42:32;98526.78;;;19.94;42.71
57574;BME280;63722;48.858;21.906;2023-01-15T08:44:57;98518.00;;;19.93;42.67
57574;BME280;63722;48.858;21.906;2023-01-15T08:47:23;98513.47;;;19.94;42.79
57574;BME280;63722;48.858;21.906;2023-01-15T08:49:48;98516.13;;;19.94;42.86
57574;BME280;63722;48.858;21.906;2023-01-15T08:52:14;98525.75;;;19.95;42.81
57574;BME280;63722;48.858;21.906;2023-01-15T08:54:39;98518.78;;;19.94;42.76
57574;BME280;63722;48.858;21.906;2023-01-15T08:57:05;98522.53;;;19.93;42.68
57574;BME280;63722;48.858;21.906;2023-01-15T08:59:33;98509.22;;;19.93;42.67
57574;BME280;63722;48.858;21.906;2023-01-15T09:01:59;98506.56;;;19.93;42.65
57574;BME280;63722;48.858;21.906;2023-01-15T09:04:24;98502.28;;;19.92;42.69
57574;BME280;63722;48.858;21.906;2023-01-15T09:06:50;98509.22;;;19.93;42.77
57574;BME280;63722;48.858;21.906;2023-01-15T09:09:15;98516.97;;;19.94;42.83
57574;BME280;63722;48.858;21.906;2023-01-15T09:11:43;98519.38;;;19.96;42.70
57574;BME280;63722;48.858;21.906;2023-01-15T09:14:09;98525.75;;;19.95;42.68
57574;BME280;63722;48.858;21.906;2023-01-15T09:16:36;98516.13;;;19.94;42.70
57574;BME280;63722;48.858;21.906;2023-01-15T09:19:02;98510.00;;;19.93;42.67
57574;BME280;63722;48.858;21.906;2023-01-15T09:21:28;98511.88;;;19.93;42.65
57574;BME280;63722;48.858;21.906;2023-01-15T09:23:53;98507.66;;;19.97;42.57
57574;BME280;63722;48.858;21.906;2023-01-15T09:26:32;98498.09;;;19.96;42.50
57574;BME280;63722;48.858;21.906;2023-01-15T09:28:58;98489.75;;;19.92;42.58
57574;BME280;63722;48.858;21.906;2023-01-15T09:31:24;98483.97;;;19.95;42.68
57574;BME280;63722;48.858;21.906;2023-01-15T09:33:50;98470.66;;;19.95;42.80
57574;BME280;63722;48.858;21.906;2023-01-15T09:36:25;98466.16;;;19.96;42.76
57574;BME280;63722;48.858;21.906;2023-01-15T09:38:53;98461.88;;;19.95;42.69
57574;BME280;63722;48.858;21.906;2023-01-15T09:41:19;98446.94;;;19.94;42.70
57574;BME280;63722;48.858;21.906;2023-01-15T09:46:57;98441.13;;;19.97;42.70
57574;BME280;63722;48.858;21.906;2023-01-15T09:57:43;98433.38;;;19.95;42.66
57574;BME280;63722;48.858;21.906;2023-01-15T10:00:23;98430.97;;;19.94;42.74
57574;BME280;63722;48.858;21.906;2023-01-15T10:05:21;98426.47;;;19.94;42.71
57574;BME280;63722;48.858;21.906;2023-01-15T10:10:27;98425.66;;;19.94;42.47
57574;BME280;63722;48.858;21.906;2023-01-15T10:13:05;98424.38;;;19.96;42.60
57574;BME280;63722;48.858;21.906;2023-01-15T10:15:43;98413.97;;;19.95;42.53
57574;BME280;63722;48.858;21.906;2023-01-15T10:18:27;98413.72;;;19.96;42.63
57574;BME280;63722;48.858;21.906;2023-01-15T10:26:43;98397.69;;;19.91;42.54
57574;BME280;63722;48.858;21.906;2023-01-15T10:31:47;98404.34;;;19.94;42.61
57574;BME280;63722;48.858;21.906;2023-01-15T10:35:02;98397.44;;;19.93;42.65
57574;BME280;63722;48.858;21.906;2023-01-15T10:45:26;98388.38;;;19.94;42.52
57574;BME280;63722;48.858;21.906;2023-01-15T10:48:02;98386.81;;;19.93;42.69
57574;BME280;63722;48.858;21.906;2023-01-15T10:50:31;98382.28;;;19.93;42.49
57574;BME280;63722;48.858;21.906;2023-01-15T10:53:10;98387.59;;;19.93;42.56
57574;BME280;63722;48.858;21.906;2023-01-15T10:55:41;98390.50;;;19.92;42.57
57574;BME280;63722;48.858;21.906;2023-01-15T11:00:39;98378.56;;;19.94;42.57
57574;BME280;63722;48.858;21.906;2023-01-15T11:03:15;98377.50;;;19.95;42.49
57574;BME280;63722;48.858;21.906;2023-01-15T11:05:42;98364.94;;;19.91;42.47
57574;BME280;63722;48.858;21.906;2023-01-15T11:08:23;98359.69;;;19.96;42.53
57574;BME280;63722;48.858;21.906;2023-01-15T11:10:53;98358.06;;;19.95;42.67
57574;BME280;63722;48.858;21.906;2023-01-15T11:13:23;98359.13;;;19.94;42.55
57574;BME280;63722;48.858;21.906;2023-01-15T11:16:16;98347.13;;;19.91;42.72
57574;BME280;63722;48.858;21.906;2023-01-15T11:19:03;98339.16;;;19.91;42.60
57574;BME280;63722;48.858;21.906;2023-01-15T11:21:48;98356.47;;;19.94;42.61
57574;BME280;63722;48.858;21.906;2023-01-15T11:24:16;98352.22;;;19.93;42.71
57574;BME280;63722;48.858;21.906;2023-01-15T11:26:51;98344.22;;;19.93;42.52
57574;BME280;63722;48.858;21.906;2023-01-15T11:29:32;98347.94;;;19.92;42.70
57574;BME280;63722;48.858;21.906;2023-01-15T11:31:59;98333.59;;;19.93;42.56
57574;BME280;63722;48.858;21.906;2023-01-15T11:34:24;98329.06;;;19.93;42.72
57574;BME280;63722;48.858;21.906;2023-01-15T11:37:04;98324.53;;;19.94;42.64
57574;BME280;63722;48.858;21.906;2023-01-15T11:39:30;98314.63;;;19.89;42.67
57574;BME280;63722;48.858;21.906;2023-01-15T11:42:04;98303.44;;;19.87;42.66
57574;BME280;63722;48.858;21.906;2023-01-15T11:44:54;98320.03;;;19.94;42.58
57574;BME280;63722;48.858;21.906;2023-01-15T11:47:49;98312.28;;;19.93;42.22
57574;BME280;63722;48.858;21.906;2023-01-15T11:50:34;98304.56;;;19.91;42.58
57574;BME280;63722;48.858;21.906;2023-01-15T11:53:18;98297.38;;;19.92;42.38
57574;BME280;63722;48.858;21.906;2023-01-15T11:56:05;98289.88;;;19.89;42.66
57574;BME280;63722;48.858;21.906;2023-01-15T11:58:39;98292.84;;;19.92;42.51
57574;BME280;63722;48.858;21.906;2023-01-15T12:01:05;98286.72;;;19.92;42.60
57574;BME280;63722;48.858;21.906;2023-01-15T12:03:34;98280.84;;;19.90;42.54
57574;BME280;63722;48.858;21.906;2023-01-15T12:06:06;98278.75;;;19.92;42.62
57574;BME280;63722;48.858;21.906;2023-01-15T12:08:49;98273.91;;;19.89;42.50
57574;BME280;63722;48.858;21.906;2023-01-15T12:14:17;98275.03;;;19.93;42.56
57574;BME280;63722;48.858;21.906;2023-01-15T12:21:56;98267.06;;;19.93;42.41
57574;BME280;63722;48.858;21.906;2023-01-15T12:24:40;98261.16;;;19.91;42.56
57574;BME280;63722;48.858;21.906;2023-01-15T12:27:17;98254.00;;;19.91;42.38
57574;BME280;63722;48.858;21.906;2023-01-15T12:32:21;98249.47;;;19.92;42.62
57574;BME280;63722;48.858;21.906;2023-01-15T12:34:53;98238.81;;;19.92;42.60
57574;BME280;63722;48.858;21.906;2023-01-15T12:37:23;98233.50;;;19.92;42.43
57574;BME280;63722;48.858;21.906;2023-01-15T12:42:21;98237.22;;;19.91;42.47
57574;BME280;63722;48.858;21.906;2023-01-15T12:45:09;98225.53;;;19.92;42.56
57574;BME280;63722;48.858;21.906;2023-01-15T12:47:43;98221.50;;;19.89;42.39
57574;BME280;63722;48.858;21.906;2023-01-15T12:50:47;98224.16;;;19.89;42.51
57574;BME280;63722;48.858;21.906;2023-01-15T13:03:50;98214.88;;;19.92;42.56
57574;BME280;63722;48.858;21.906;2023-01-15T13:06:22;98209.81;;;19.90;42.79
57574;BME280;63722;48.858;21.906;2023-01-15T13:08:59;98201.81;;;19.90;42.66
57574;BME280;63722;48.858;21.906;2023-01-15T13:11:26;98200.19;;;19.89;42.41
57574;BME280;63722;48.858;21.906;2023-01-15T13:13:51;98197.03;;;19.92;42.71
57574;BME280;63722;48.858;21.906;2023-01-15T13:16:52;98193.59;;;19.92;42.50
57574;BME280;63722;48.858;21.906;2023-01-15T13:19:25;98193.59;;;19.92;42.37
57574;BME280;63722;48.858;21.906;2023-01-15T13:21:56;98186.91;;;19.89;42.48
57574;BME280;63722;48.858;21.906;2023-01-15T13:27:23;98196.25;;;19.92;42.65
57574;BME280;63722;48.858;21.906;2023-01-15T13:32:31;98193.53;;;19.87;42.61
57574;BME280;63722;48.858;21.906;2023-01-15T13:37:35;98180.25;;;19.87;42.52
57574;BME280;63722;48.858;21.906;2023-01-15T13:43:26;98171.94;;;19.83;42.53
57574;BME280;63722;48.858;21.906;2023-01-15T13:45:52;98163.16;;;19.82;42.65
57574;BME280;63722;48.858;21.906;2023-01-15T13:48:43;98159.47;;;19.83;42.73
57574;BME280;63722;48.858;21.906;2023-01-15T13:51:27;98150.91;;;19.81;42.58
57574;BME280;63722;48.858;21.906;2023-01-15T13:53:55;98151.97;;;19.80;42.71
57574;BME280;63722;48.858;21.906;2023-01-15T13:58:52;98150.63;;;19.78;42.64
57574;BME280;63722;48.858;21.906;2023-01-15T14:06:50;98149.47;;;19.74;42.74
57574;BME280;63722;48.858;21.906;2023-01-15T14:36:39;98154.94;;;19.62;42.82
57574;BME280;63722;48.858;21.906;2023-01-15T14:39:32;98162.94;;;19.62;42.74
57574;BME280;63722;48.858;21.906;2023-01-15T14:42:29;98157.03;;;19.60;42.73
57574;BME280;63722;48.858;21.906;2023-01-15T14:45:37;98146.91;;;19.57;42.82
57574;BME280;63722;48.858;21.906;2023-01-15T14:48:40;98138.91;;;19.57;42.92
57574;BME280;63722;48.858;21.906;2023-01-15T14:51:21;98140.53;;;19.58;42.78
57574;BME280;63722;48.858;21.906;2023-01-15T14:53:55;98133.59;;;19.57;42.86
57574;BME280;63722;48.858;21.906;2023-01-15T14:56:36;98145.31;;;19.56;42.79
57574;BME280;63722;48.858;21.906;2023-01-15T14:59:22;98134.66;;;19.56;42.51
57574;BME280;63722;48.858;21.906;2023-01-15T15:02:00;98141.03;;;19.55;42.78
57574;BME280;63722;48.858;21.906;2023-01-15T15:05:08;98136.75;;;19.54;42.83
57574;BME280;63722;48.858;21.906;2023-01-15T15:07:26;98135.97;;;19.53;42.96